Time;durP1;ratioP1;P1;durP2;ratioP2;P2;SDS_P1;SDS_P2;PMS_P1;PMS_P2;Temp;Humidity;BMP_temperature;BMP_pressure;BME280_temperature;BME280_humidity;BME280_pressure;Samples;Min_cycle;Max_cycle;Signal;HPM_P1;HPM_P2
2023/08/17 00:00:26;;;;;;;;;;;24.00;61.30;;;;;;1550820;75;1171;-56
2023/08/17 00:02:28;;;;;;;;;;;23.90;61.30;;;;;;1561333;75;691;-55
2023/08/17 00:04:30;;;;;;;;;;;23.90;61.30;;;;;;1557473;76;733;-54
2023/08/17 00:06:32;;;;;;;;;;;23.90;61.40;;;;;;1556876;75;1922;-56
2023/08/17 00:08:34;;;;;;;;;;;24.00;61.40;;;;;;1555638;75;1429;-53
2023/08/17 00:10:38;;;;;;;;;;;24.00;61.40;;;;;;1558928;75;1144;-56
2023/08/17 00:12:39;;;;;;;;;;;23.90;61.40;;;;;;1559255;75;1554;-57
2023/08/17 00:14:41;;;;;;;;;;;23.90;61.30;;;;;;1557660;76;757;-56
2023/08/17 00:16:43;;;;;;;;;;;24.00;61.30;;;;;;1559054;75;711;-57
2023/08/17 00:18:45;;;;;;;;;;;24.00;61.30;;;;;;1561217;75;1134;-56
2023/08/17 00:20:48;;;;;;;;;;;24.00;61.30;;;;;;1559148;75;774;-55
2023/08/17 00:22:49;;;;;;;;;;;24.00;61.30;;;;;;1556661;75;1460;-53
2023/08/17 00:24:51;;;;;;;;;;;23.90;61.30;;;;;;1553112;76;673;-56
2023/08/17 00:26:53;;;;;;;;;;;24.00;61.20;;;;;;1551284;75;1924;-52
2023/08/17 00:28:55;;;;;;;;;;;24.00;61.10;;;;;;1556116;76;1137;-53
2023/08/17 00:30:57;;;;;;;;;;;24.00;61.10;;;;;;1558986;75;666;-55
2023/08/17 00:32:59;;;;;;;;;;;23.90;61.00;;;;;;1555869;76;817;-55
2023/08/17 00:35:01;;;;;;;;;;;23.90;61.00;;;;;;1559587;76;741;-57
2023/08/17 00:37:03;;;;;;;;;;;23.90;61.00;;;;;;1558930;75;1606;-57
2023/08/17 00:39:05;;;;;;;;;;;23.90;61.00;;;;;;1553257;76;1164;-56
2023/08/17 00:41:07;;;;;;;;;;;23.90;61.00;;;;;;1557364;75;784;-55
2023/08/17 00:43:08;;;;;;;;;;;23.90;61.00;;;;;;1546475;76;636;-56
2023/08/17 00:45:10;;;;;;;;;;;23.90;61.00;;;;;;1552137;75;701;-54
2023/08/17 00:47:12;;;;;;;;;;;23.90;61.10;;;;;;1561133;75;1939;-57
2023/08/17 00:49:14;;;;;;;;;;;23.90;61.00;;;;;;1559133;75;1125;-57
2023/08/17 00:51:16;;;;;;;;;;;23.90;61.00;;;;;;1560572;75;629;-57
2023/08/17 00:53:18;;;;;;;;;;;23.90;61.00;;;;;;1554790;75;760;-57
2023/08/17 00:55:20;;;;;;;;;;;23.90;61.00;;;;;;1556246;75;716;-54
2023/08/17 00:57:21;;;;;;;;;;;23.90;61.00;;;;;;1533070;76;775;-56
2023/08/17 00:59:23;;;;;;;;;;;23.90;60.90;;;;;;1552002;76;1190;-56
2023/08/17 01:01:25;;;;;;;;;;;23.90;60.90;;;;;;1559541;76;774;-54
2023/08/17 01:03:29;;;;;;;;;;;23.90;60.90;;;;;;1555348;75;1552;-53
2023/08/17 01:05:32;;;;;;;;;;;23.90;60.90;;;;;;1556314;75;724;-54
2023/08/17 01:07:34;;;;;;;;;;;23.90;60.90;;;;;;1558657;75;1915;-55
2023/08/17 01:09:36;;;;;;;;;;;23.90;60.80;;;;;;1554531;75;1205;-54
2023/08/17 01:11:40;;;;;;;;;;;23.90;60.90;;;;;;1557932;75;626;-54
2023/08/17 01:13:43;;;;;;;;;;;23.90;60.90;;;;;;1559726;75;1887;-57
2023/08/17 01:15:47;;;;;;;;;;;23.90;60.90;;;;;;1558810;75;913;-57
2023/08/17 01:17:50;;;;;;;;;;;23.90;60.90;;;;;;1554890;75;1765;-56
2023/08/17 01:19:53;;;;;;;;;;;23.90;60.90;;;;;;1561279;75;1118;-56
2023/08/17 01:21:55;;;;;;;;;;;23.90;60.80;;;;;;1555589;75;795;-56
2023/08/17 01:23:59;;;;;;;;;;;23.90;60.80;;;;;;1553482;75;723;-57
2023/08/17 01:26:01;;;;;;;;;;;23.90;60.90;;;;;;1556620;75;759;-52
2023/08/17 01:28:04;;;;;;;;;;;23.90;60.90;;;;;;1555427;76;1958;-55
2023/08/17 01:30:06;;;;;;;;;;;23.90;60.90;;;;;;1560356;75;1121;-55
2023/08/17 01:32:10;;;;;;;;;;;23.90;60.90;;;;;;1557374;76;1448;-56
2023/08/17 01:34:13;;;;;;;;;;;23.90;60.90;;;;;;1558046;75;1879;-54
2023/08/17 01:36:19;;;;;;;;;;;23.90;60.90;;;;;;1560073;75;755;-56
2023/08/17 01:38:22;;;;;;;;;;;23.90;60.90;;;;;;1555975;75;793;-57
2023/08/17 01:40:24;;;;;;;;;;;23.90;60.90;;;;;;1553505;75;1141;-57
2023/08/17 01:42:26;;;;;;;;;;;23.90;60.90;;;;;;1559741;76;761;-57
2023/08/17 01:44:28;;;;;;;;;;;23.90;61.00;;;;;;1559736;75;782;-56
2023/08/17 01:46:34;;;;;;;;;;;23.90;60.90;;;;;;1556691;75;1435;-54
2023/08/17 01:48:36;;;;;;;;;;;23.80;60.90;;;;;;1558291;75;1908;-56
2023/08/17 01:50:38;;;;;;;;;;;23.80;60.90;;;;;;1559103;75;1153;-57
2023/08/17 01:52:40;;;;;;;;;;;23.80;60.90;;;;;;1557016;76;763;-57
2023/08/17 01:54:41;;;;;;;;;;;23.90;61.00;;;;;;1559883;75;867;-55
2023/08/17 01:56:43;;;;;;;;;;;23.80;60.90;;;;;;1554691;76;732;-55
2023/08/17 01:58:45;;;;;;;;;;;23.80;60.90;;;;;;1556326;75;1153;-57
2023/08/17 02:00:47;;;;;;;;;;;23.80;60.90;;;;;;1560592;75;1517;-57
2023/08/17 02:02:49;;;;;;;;;;;23.90;61.00;;;;;;1559900;75;781;-56
2023/08/17 02:04:51;;;;;;;;;;;23.90;61.00;;;;;;1546760;76;730;-56
2023/08/17 02:06:53;;;;;;;;;;;23.90;61.00;;;;;;1547798;75;724;-56
2023/08/17 02:08:55;;;;;;;;;;;23.80;60.90;;;;;;1559928;75;1954;-55
2023/08/17 02:10:56;;;;;;;;;;;23.90;61.10;;;;;;1549344;75;723;-54
2023/08/17 02:12:58;;;;;;;;;;;23.80;61.00;;;;;;1559587;75;788;-57
2023/08/17 02:15:00;;;;;;;;;;;23.80;61.00;;;;;;1561150;75;1576;-57
2023/08/17 02:17:02;;;;;;;;;;;23.90;61.00;;;;;;1561268;75;738;-57
2023/08/17 02:19:04;;;;;;;;;;;23.80;61.00;;;;;;1555550;75;1138;-57
2023/08/17 02:21:06;;;;;;;;;;;23.80;61.00;;;;;;1556731;75;966;-55
2023/08/17 02:23:08;;;;;;;;;;;23.90;61.10;;;;;;1561649;75;769;-56
2023/08/17 02:25:10;;;;;;;;;;;23.80;61.00;;;;;;1557857;75;786;-54
2023/08/17 02:27:12;;;;;;;;;;;23.80;61.00;;;;;;1558753;75;762;-53
2023/08/17 02:29:13;;;;;;;;;;;23.80;61.00;;;;;;1548707;75;1950;-56
2023/08/17 02:31:15;;;;;;;;;;;23.80;61.10;;;;;;1561191;75;755;-57
2023/08/17 02:33:17;;;;;;;;;;;23.70;61.10;;;;;;1552477;75;794;-56
2023/08/17 02:35:19;;;;;;;;;;;23.70;61.10;;;;;;1552332;76;783;-54
2023/08/17 02:37:21;;;;;;;;;;;23.70;61.10;;;;;;1561110;75;783;-56
2023/08/17 02:39:23;;;;;;;;;;;23.70;61.00;;;;;;1553506;75;1117;-55
2023/08/17 02:41:25;;;;;;;;;;;23.80;61.00;;;;;;1560030;75;810;-54
2023/08/17 02:43:27;;;;;;;;;;;23.70;60.90;;;;;;1556419;75;1498;-56
2023/08/17 02:45:28;;;;;;;;;;;23.70;60.90;;;;;;1560034;75;761;-57
2023/08/17 02:47:30;;;;;;;;;;;23.70;60.90;;;;;;1559913;75;1947;-56
2023/08/17 02:49:32;;;;;;;;;;;23.70;60.90;;;;;;1560262;75;1142;-57
2023/08/17 02:51:34;;;;;;;;;;;23.70;60.90;;;;;;1560565;75;757;-57
2023/08/17 02:53:36;;;;;;;;;;;23.70;60.90;;;;;;1557548;75;737;-53
2023/08/17 02:55:38;;;;;;;;;;;23.70;60.90;;;;;;1555471;76;719;-54
2023/08/17 02:57:40;;;;;;;;;;;23.70;60.80;;;;;;1557009;75;1640;-56
2023/08/17 02:59:42;;;;;;;;;;;23.80;60.80;;;;;;1554639;75;1124;-57
2023/08/17 03:01:44;;;;;;;;;;;23.70;60.80;;;;;;1560732;75;925;-56
2023/08/17 03:03:46;;;;;;;;;;;23.70;60.70;;;;;;1553549;75;817;-54
2023/08/17 03:05:48;;;;;;;;;;;23.70;60.80;;;;;;1559424;76;763;-56
2023/08/17 03:07:50;;;;;;;;;;;23.80;60.80;;;;;;1559103;75;1914;-57
2023/08/17 03:09:52;;;;;;;;;;;23.80;60.70;;;;;;1558044;75;1188;-57
2023/08/17 03:11:54;;;;;;;;;;;23.70;60.70;;;;;;1557782;75;726;-55
2023/08/17 03:13:59;;;;;;;;;;;23.70;60.70;;;;;;1561003;75;677;-55
2023/08/17 03:15:59;;;;;;;;;;;23.70;60.70;;;;;;1559201;75;1646;-56
2023/08/17 03:18:01;;;;;;;;;;;23.70;60.80;;;;;;1560930;76;774;-54
2023/08/17 03:20:05;;;;;;;;;;;23.70;60.80;;;;;;1557515;76;1158;-57
2023/08/17 03:22:07;;;;;;;;;;;23.70;60.70;;;;;;1556856;75;1673;-54
2023/08/17 03:24:08;;;;;;;;;;;23.70;60.70;;;;;;1555153;75;1517;-55
2023/08/17 03:26:10;;;;;;;;;;;23.80;60.70;;;;;;1553104;75;684;-55
2023/08/17 03:28:12;;;;;;;;;;;23.60;60.50;;;;;;1557892;75;1937;-54
2023/08/17 03:30:14;;;;;;;;;;;23.70;60.70;;;;;;1559180;75;1130;-54
2023/08/17 03:32:16;;;;;;;;;;;23.60;60.60;;;;;;1555514;75;705;-56
2023/08/17 03:34:18;;;;;;;;;;;23.70;60.70;;;;;;1561283;75;819;-54
2023/08/17 03:36:20;;;;;;;;;;;23.70;60.70;;;;;;1557832;75;796;-56
2023/08/17 03:38:22;;;;;;;;;;;23.70;60.60;;;;;;1557522;76;1531;-57
2023/08/17 03:40:23;;;;;;;;;;;23.70;60.60;;;;;;1559188;75;1151;-56
2023/08/17 03:42:25;;;;;;;;;;;23.70;60.60;;;;;;1558011;75;841;-54
2023/08/17 03:44:27;;;;;;;;;;;23.70;60.50;;;;;;1530320;76;805;-56
2023/08/17 03:46:29;;;;;;;;;;;23.70;60.50;;;;;;1530401;76;730;-54
2023/08/17 03:48:31;;;;;;;;;;;23.60;60.30;;;;;;1553574;76;1935;-56
2023/08/17 03:50:33;;;;;;;;;;;23.60;60.30;;;;;;1570279;74;1128;-57
2023/08/17 03:52:35;;;;;;;;;;;23.60;60.30;;;;;;1565202;74;1515;-56
2023/08/17 03:54:37;;;;;;;;;;;23.60;60.40;;;;;;1563629;74;803;-56
2023/08/17 03:56:38;;;;;;;;;;;23.60;60.40;;;;;;1564131;74;764;-55
2023/08/17 03:58:42;;;;;;;;;;;23.60;60.30;;;;;;1570733;74;1125;-55
2023/08/17 04:00:45;;;;;;;;;;;23.70;60.50;;;;;;1563770;74;707;-57
2023/08/17 04:02:47;;;;;;;;;;;23.60;60.30;;;;;;1557661;74;1549;-57
2023/08/17 04:04:49;;;;;;;;;;;23.60;60.30;;;;;;1564176;74;809;-56
2023/08/17 04:06:51;;;;;;;;;;;23.60;60.20;;;;;;1570376;74;1426;-54
2023/08/17 04:08:53;;;;;;;;;;;23.60;60.20;;;;;;1570719;74;1941;-56
2023/08/17 04:10:55;;;;;;;;;;;23.60;60.20;;;;;;1568343;74;715;-56
2023/08/17 04:12:57;;;;;;;;;;;23.60;60.30;;;;;;1562590;74;731;-56
2023/08/17 04:14:59;;;;;;;;;;;23.70;60.40;;;;;;1566685;74;737;-55
2023/08/17 04:17:01;;;;;;;;;;;23.60;60.30;;;;;;1567038;74;724;-56
2023/08/17 04:19:02;;;;;;;;;;;23.60;60.20;;;;;;1562755;75;1165;-55
2023/08/17 04:21:04;;;;;;;;;;;23.70;60.30;;;;;;1563117;75;1328;-54
2023/08/17 04:23:06;;;;;;;;;;;23.60;60.20;;;;;;1560499;74;750;-54
2023/08/17 04:25:08;;;;;;;;;;;23.60;60.20;;;;;;1566270;74;740;-57
2023/08/17 04:27:11;;;;;;;;;;;23.60;60.10;;;;;;1569390;74;704;-56
2023/08/17 04:29:13;;;;;;;;;;;23.60;60.10;;;;;;1570421;74;1908;-56
2023/08/17 04:31:17;;;;;;;;;;;23.60;60.10;;;;;;1555259;74;668;-55
2023/08/17 04:33:19;;;;;;;;;;;23.60;60.10;;;;;;1568240;74;693;-54
2023/08/17 04:35:20;;;;;;;;;;;23.60;60.00;;;;;;1559461;74;1526;-55
2023/08/17 04:37:22;;;;;;;;;;;23.60;60.10;;;;;;1568407;74;723;-55
2023/08/17 04:39:24;;;;;;;;;;;23.60;60.10;;;;;;1572868;74;1168;-56
2023/08/17 04:41:26;;;;;;;;;;;23.60;60.10;;;;;;1565644;74;739;-57
2023/08/17 04:43:28;;;;;;;;;;;23.60;60.10;;;;;;1560520;75;714;-54
2023/08/17 04:45:30;;;;;;;;;;;23.60;60.10;;;;;;1567643;74;758;-53
2023/08/17 04:47:32;;;;;;;;;;;23.60;60.10;;;;;;1561703;74;781;-55
2023/08/17 04:49:34;;;;;;;;;;;23.60;60.10;;;;;;1566945;74;1936;-57
2023/08/17 04:51:35;;;;;;;;;;;23.60;60.20;;;;;;1569534;75;731;-56
2023/08/17 04:53:37;;;;;;;;;;;23.60;60.20;;;;;;1567103;74;710;-57
2023/08/17 04:55:39;;;;;;;;;;;23.60;60.20;;;;;;1570765;74;716;-57
2023/08/17 04:57:41;;;;;;;;;;;23.60;60.20;;;;;;1560966;74;796;-54
2023/08/17 04:59:43;;;;;;;;;;;23.60;60.20;;;;;;1566206;75;1165;-53
2023/08/17 05:01:45;;;;;;;;;;;23.60;60.30;;;;;;1569686;75;717;-57
2023/08/17 05:03:47;;;;;;;;;;;23.60;60.20;;;;;;1560431;74;1513;-55
2023/08/17 05:05:49;;;;;;;;;;;23.60;60.30;;;;;;1564479;74;766;-55
2023/08/17 05:07:50;;;;;;;;;;;23.60;60.30;;;;;;1569730;74;697;-53
2023/08/17 05:09:52;;;;;;;;;;;23.60;60.30;;;;;;1562515;75;1942;-56
2023/08/17 05:11:54;;;;;;;;;;;23.60;60.30;;;;;;1567448;75;685;-53
2023/08/17 05:13:56;;;;;;;;;;;23.60;60.40;;;;;;1563921;74;703;-52
2023/08/17 05:15:58;;;;;;;;;;;23.60;60.30;;;;;;1563414;74;655;-55
2023/08/17 05:18:00;;;;;;;;;;;23.60;60.40;;;;;;1569395;74;1501;-55
2023/08/17 05:20:02;;;;;;;;;;;23.70;60.50;;;;;;1564159;74;1190;-56
2023/08/17 05:22:04;;;;;;;;;;;23.60;60.50;;;;;;1565092;75;674;-56
2023/08/17 05:24:06;;;;;;;;;;;23.70;60.60;;;;;;1564707;74;752;-55
2023/08/17 05:26:08;;;;;;;;;;;23.70;60.70;;;;;;1561593;74;748;-56
2023/08/17 05:28:10;;;;;;;;;;;23.70;60.80;;;;;;1562190;74;1008;-54
2023/08/17 05:30:12;;;;;;;;;;;23.80;60.80;;;;;;1569092;75;1964;-53
2023/08/17 05:32:14;;;;;;;;;;;23.80;60.80;;;;;;1568147;74;1828;-57
2023/08/17 05:34:16;;;;;;;;;;;23.80;60.80;;;;;;1570845;74;742;-54
2023/08/17 05:36:18;;;;;;;;;;;23.90;60.80;;;;;;1555173;74;764;-53
2023/08/17 05:38:20;;;;;;;;;;;23.90;60.90;;;;;;1564417;74;699;-54
2023/08/17 05:40:22;;;;;;;;;;;23.90;61.20;;;;;;1569334;74;1144;-56
2023/08/17 05:42:23;;;;;;;;;;;23.90;61.40;;;;;;1568006;74;873;-57
2023/08/17 05:44:25;;;;;;;;;;;23.90;61.50;;;;;;1564124;74;922;-55
2023/08/17 05:46:27;;;;;;;;;;;23.70;61.70;;;;;;1564542;74;1556;-56
2023/08/17 05:48:29;;;;;;;;;;;23.80;61.70;;;;;;1569377;74;695;-55
2023/08/17 05:50:31;;;;;;;;;;;23.80;61.70;;;;;;1565200;75;1119;-54
2023/08/17 05:52:33;;;;;;;;;;;23.90;61.60;;;;;;1564218;74;799;-53
2023/08/17 05:54:35;;;;;;;;;;;24.00;61.60;;;;;;1561492;74;723;-56
2023/08/17 05:56:36;;;;;;;;;;;24.00;61.60;;;;;;1564498;75;688;-56
2023/08/17 05:58:38;;;;;;;;;;;24.00;61.50;;;;;;1564964;74;746;-55
2023/08/17 06:00:41;;;;;;;;;;;24.00;61.20;;;;;;1563614;74;810;-57
2023/08/17 06:02:43;;;;;;;;;;;24.10;61.30;;;;;;1565965;75;729;-54
2023/08/17 06:04:45;;;;;;;;;;;24.00;61.20;;;;;;1569502;74;674;-55
2023/08/17 06:06:47;;;;;;;;;;;24.10;61.40;;;;;;1561215;74;754;-57
2023/08/17 06:08:49;;;;;;;;;;;24.10;61.30;;;;;;1562442;75;1926;-53
2023/08/17 06:10:51;;;;;;;;;;;24.10;61.20;;;;;;1562969;74;672;-55
2023/08/17 06:12:53;;;;;;;;;;;24.30;61.20;;;;;;1565137;74;1414;-55
2023/08/17 06:14:55;;;;;;;;;;;24.30;60.90;;;;;;1561156;74;679;-55
2023/08/17 06:16:57;;;;;;;;;;;24.30;61.20;;;;;;1570323;74;708;-53
2023/08/17 06:18:59;;;;;;;;;;;24.30;61.10;;;;;;1570473;74;1146;-56
2023/08/17 06:21:01;;;;;;;;;;;24.40;60.90;;;;;;1569220;74;669;-56
2023/08/17 06:23:03;;;;;;;;;;;24.40;60.50;;;;;;1565140;74;722;-56
2023/08/17 06:25:05;;;;;;;;;;;24.50;60.30;;;;;;1563486;75;780;-55
2023/08/17 06:27:07;;;;;;;;;;;24.50;60.00;;;;;;1564640;75;1522;-56
2023/08/17 06:29:09;;;;;;;;;;;24.60;59.80;;;;;;1571419;74;1938;-55
2023/08/17 06:31:11;;;;;;;;;;;24.60;59.80;;;;;;1566035;74;712;-54
2023/08/17 06:33:13;;;;;;;;;;;24.60;59.80;;;;;;1577332;74;1211;-54
2023/08/17 06:35:15;;;;;;;;;;;24.60;59.70;;;;;;1526839;76;728;-57
2023/08/17 06:37:17;;;;;;;;;;;24.70;59.60;;;;;;1570785;74;701;-55
2023/08/17 06:39:19;;;;;;;;;;;24.70;60.30;;;;;;1566325;74;1160;-56
2023/08/17 06:41:21;;;;;;;;;;;24.70;60.50;;;;;;1526926;76;1333;-54
2023/08/17 06:43:23;;;;;;;;;;;24.80;60.10;;;;;;1543435;75;750;-57
2023/08/17 06:45:24;;;;;;;;;;;24.80;59.80;;;;;;1526973;76;774;-57
2023/08/17 06:47:26;;;;;;;;;;;24.90;59.80;;;;;;1569416;75;686;-57
2023/08/17 06:49:28;;;;;;;;;;;24.80;59.60;;;;;;1568361;75;1943;-57
2023/08/17 06:51:30;;;;;;;;;;;24.80;59.60;;;;;;1565408;75;774;-55
2023/08/17 06:53:32;;;;;;;;;;;24.80;59.60;;;;;;1555918;74;651;-54
2023/08/17 06:55:34;;;;;;;;;;;24.80;60.80;;;;;;1568513;74;1459;-54
2023/08/17 06:57:36;;;;;;;;;;;24.80;59.70;;;;;;1570186;74;654;-56
2023/08/17 06:59:38;;;;;;;;;;;24.90;59.70;;;;;;1561578;74;1109;-55
2023/08/17 07:01:39;;;;;;;;;;;24.90;60.00;;;;;;1562683;75;748;-55
2023/08/17 07:03:41;;;;;;;;;;;24.80;59.90;;;;;;1565749;75;721;-57
2023/08/17 07:05:43;;;;;;;;;;;24.90;60.10;;;;;;1566582;74;922;-56
2023/08/17 07:07:45;;;;;;;;;;;24.80;60.00;;;;;;1568345;74;683;-56
2023/08/17 07:09:47;;;;;;;;;;;24.80;60.20;;;;;;1568490;74;1931;-54
2023/08/17 07:11:49;;;;;;;;;;;24.80;60.00;;;;;;1564495;74;690;-57
2023/08/17 07:13:51;;;;;;;;;;;24.80;60.30;;;;;;1566796;74;692;-54
2023/08/17 07:15:53;;;;;;;;;;;24.80;60.40;;;;;;1564477;74;682;-56
2023/08/17 07:17:55;;;;;;;;;;;24.80;60.50;;;;;;1570315;74;726;-56
2023/08/17 07:19:57;;;;;;;;;;;24.80;60.60;;;;;;1560319;74;1159;-57
2023/08/17 07:21:59;;;;;;;;;;;24.80;60.80;;;;;;1570066;75;685;-54
2023/08/17 07:24:03;;;;;;;;;;;24.60;60.80;;;;;;1565678;74;1564;-55
2023/08/17 07:26:05;;;;;;;;;;;24.70;60.90;;;;;;1565793;75;1069;-55
2023/08/17 07:28:07;;;;;;;;;;;24.80;61.00;;;;;;1565021;74;686;-54
2023/08/17 07:30:09;;;;;;;;;;;24.70;61.10;;;;;;1564328;74;1948;-55
2023/08/17 07:32:11;;;;;;;;;;;24.70;61.30;;;;;;1577150;74;684;-55
2023/08/17 07:34:13;;;;;;;;;;;24.70;61.20;;;;;;1572101;74;680;-54
2023/08/17 07:36:15;;;;;;;;;;;24.70;61.30;;;;;;1555447;74;728;-54
2023/08/17 07:38:17;;;;;;;;;;;24.70;61.20;;;;;;1563543;75;1545;-54
2023/08/17 07:40:18;;;;;;;;;;;24.70;61.10;;;;;;1563008;75;1105;-57
2023/08/17 07:42:20;;;;;;;;;;;24.70;61.30;;;;;;1566579;75;713;-54
2023/08/17 07:44:22;;;;;;;;;;;24.70;61.00;;;;;;1565242;74;715;-56
2023/08/17 07:46:24;;;;;;;;;;;24.70;61.00;;;;;;1565384;75;712;-54
2023/08/17 07:48:26;;;;;;;;;;;24.70;61.10;;;;;;1564631;75;672;-54
2023/08/17 07:50:28;;;;;;;;;;;24.60;61.00;;;;;;1566103;74;1934;-57
2023/08/17 07:52:30;;;;;;;;;;;24.70;61.20;;;;;;1563086;75;1551;-57
2023/08/17 07:54:32;;;;;;;;;;;24.70;61.20;;;;;;1564517;74;772;-55
2023/08/17 07:56:34;;;;;;;;;;;24.70;61.30;;;;;;1529525;77;742;-56
2023/08/17 07:58:36;;;;;;;;;;;24.60;61.20;;;;;;1563012;74;736;-54
2023/08/17 08:00:37;;;;;;;;;;;24.70;61.30;;;;;;1556630;74;1142;-54
2023/08/17 08:02:39;;;;;;;;;;;24.70;61.40;;;;;;1563281;74;685;-55
2023/08/17 08:04:41;;;;;;;;;;;24.70;61.30;;;;;;1566824;74;665;-54
2023/08/17 08:06:43;;;;;;;;;;;24.60;61.00;;;;;;1560422;74;1576;-54
2023/08/17 08:08:45;;;;;;;;;;;24.70;61.10;;;;;;1556254;75;1125;-57
2023/08/17 08:10:47;;;;;;;;;;;24.70;60.90;;;;;;1569280;74;1938;-55
2023/08/17 08:12:49;;;;;;;;;;;24.70;60.90;;;;;;1556795;74;688;-57
2023/08/17 08:14:51;;;;;;;;;;;24.70;60.90;;;;;;1561956;74;779;-55
2023/08/17 08:16:53;;;;;;;;;;;24.70;60.90;;;;;;1553649;74;715;-55
2023/08/17 08:18:54;;;;;;;;;;;24.70;61.00;;;;;;1567100;74;1189;-55
2023/08/17 08:20:56;;;;;;;;;;;24.70;61.10;;;;;;1566294;74;1582;-57
2023/08/17 08:22:58;;;;;;;;;;;24.70;61.20;;;;;;1564999;74;625;-57
2023/08/17 08:25:00;;;;;;;;;;;24.70;61.40;;;;;;1563657;74;733;-55
2023/08/17 08:27:02;;;;;;;;;;;24.60;61.40;;;;;;1570907;74;794;-56
2023/08/17 08:29:04;;;;;;;;;;;24.70;61.70;;;;;;1567359;74;1108;-57
2023/08/17 08:31:06;;;;;;;;;;;24.70;61.70;;;;;;1562192;74;1930;-53
2023/08/17 08:33:08;;;;;;;;;;;24.70;61.70;;;;;;1569392;74;679;-57
2023/08/17 08:35:10;;;;;;;;;;;24.70;61.70;;;;;;1563064;75;1965;-54
2023/08/17 08:37:12;;;;;;;;;;;24.70;61.60;;;;;;1558902;74;805;-56
2023/08/17 08:39:13;;;;;;;;;;;24.70;61.60;;;;;;1565688;74;1164;-56
2023/08/17 08:41:15;;;;;;;;;;;24.80;61.50;;;;;;1562123;75;729;-53
2023/08/17 08:43:17;;;;;;;;;;;24.80;61.50;;;;;;1568689;75;764;-55
2023/08/17 08:45:19;;;;;;;;;;;24.70;61.50;;;;;;1571247;74;753;-56
2023/08/17 08:47:23;;;;;;;;;;;24.70;61.50;;;;;;1566013;74;708;-55
2023/08/17 08:49:25;;;;;;;;;;;24.80;61.50;;;;;;1556583;74;1638;-54
2023/08/17 08:51:33;;;;;;;;;;;24.70;61.50;;;;;;1564287;74;1928;-53
2023/08/17 08:53:42;;;;;;;;;;;24.80;61.60;;;;;;1564577;74;1550;-53
2023/08/17 08:55:51;;;;;;;;;;;24.70;61.60;;;;;;1565711;74;2014;-54
2023/08/17 08:57:53;;;;;;;;;;;24.70;61.60;;;;;;1571489;74;1846;-54
2023/08/17 08:59:55;;;;;;;;;;;24.70;61.70;;;;;;1560283;75;1247;-55
2023/08/17 09:01:57;;;;;;;;;;;24.70;61.80;;;;;;1557161;74;1549;-57
2023/08/17 09:04:00;;;;;;;;;;;24.70;61.70;;;;;;1558435;74;676;-55
2023/08/17 09:06:03;;;;;;;;;;;24.70;61.90;;;;;;1556023;74;744;-55
2023/08/17 09:08:05;;;;;;;;;;;24.70;62.00;;;;;;1568572;75;756;-53
2023/08/17 09:10:07;;;;;;;;;;;24.70;61.90;;;;;;1568351;75;1942;-54
2023/08/17 09:12:09;;;;;;;;;;;24.70;62.20;;;;;;1552312;74;693;-56
2023/08/17 09:14:11;;;;;;;;;;;24.60;62.10;;;;;;1559765;74;751;-57
2023/08/17 09:16:13;;;;;;;;;;;24.70;62.30;;;;;;1571234;74;1542;-56
2023/08/17 09:18:15;;;;;;;;;;;24.70;62.40;;;;;;1570388;75;751;-54
2023/08/17 09:20:38;;;;;;;;;;;24.70;62.30;;;;;;1569081;74;1164;-54
2023/08/17 09:22:43;;;;;;;;;;;24.70;62.30;;;;;;1559390;74;2003;-56
2023/08/17 09:24:45;;;;;;;;;;;24.70;62.20;;;;;;1566886;74;770;-53
2023/08/17 09:26:48;;;;;;;;;;;24.70;62.40;;;;;;1554292;76;666;-57
2023/08/17 09:28:50;;;;;;;;;;;24.70;62.40;;;;;;1575748;75;1156;-52
2023/08/17 09:30:52;;;;;;;;;;;24.70;62.30;;;;;;1552068;74;1933;-56
2023/08/17 09:32:54;;;;;;;;;;;24.70;62.40;;;;;;1567705;74;712;-55
2023/08/17 09:34:56;;;;;;;;;;;24.70;62.40;;;;;;1563664;75;640;-54
2023/08/17 09:37:00;;;;;;;;;;;24.70;62.40;;;;;;1561183;74;801;-56
2023/08/17 09:39:03;;;;;;;;;;;24.70;62.30;;;;;;1566009;74;1881;-53
2023/08/17 09:41:06;;;;;;;;;;;24.70;62.40;;;;;;1565129;74;710;-54
2023/08/17 09:43:09;;;;;;;;;;;24.60;62.30;;;;;;1562670;74;773;-56
2023/08/17 09:45:10;;;;;;;;;;;24.80;62.30;;;;;;1568228;75;1685;-57
2023/08/17 09:47:12;;;;;;;;;;;24.70;62.30;;;;;;1568122;74;679;-54
2023/08/17 09:49:14;;;;;;;;;;;24.70;62.40;;;;;;1566087;74;1131;-57
2023/08/17 09:51:16;;;;;;;;;;;24.70;62.40;;;;;;1558735;74;1931;-57
2023/08/17 09:53:18;;;;;;;;;;;24.70;62.40;;;;;;1567406;75;814;-57
2023/08/17 09:55:22;;;;;;;;;;;24.80;62.40;;;;;;1567168;74;736;-54
2023/08/17 09:57:23;;;;;;;;;;;24.70;62.50;;;;;;1569449;74;925;-56
2023/08/17 09:59:25;;;;;;;;;;;24.70;62.50;;;;;;1564405;74;1510;-57
2023/08/17 10:01:28;;;;;;;;;;;24.70;62.40;;;;;;1557861;75;821;-56
2023/08/17 10:03:30;;;;;;;;;;;24.80;62.40;;;;;;1567632;75;721;-57
2023/08/17 10:05:32;;;;;;;;;;;24.70;62.50;;;;;;1565091;74;677;-55
2023/08/17 10:07:34;;;;;;;;;;;24.70;62.50;;;;;;1568418;75;794;-57
2023/08/17 10:09:37;;;;;;;;;;;24.80;62.50;;;;;;1562642;74;1150;-54
2023/08/17 10:11:39;;;;;;;;;;;24.70;62.50;;;;;;1554762;74;1942;-55
2023/08/17 10:13:45;;;;;;;;;;;24.80;62.50;;;;;;1559502;74;1666;-54
2023/08/17 10:15:55;;;;;;;;;;;24.70;62.70;;;;;;1566610;74;734;-54
2023/08/17 10:17:58;;;;;;;;;;;24.70;62.60;;;;;;1570099;74;772;-57
2023/08/17 10:20:00;;;;;;;;;;;24.70;62.50;;;;;;1564948;75;1133;-54
2023/08/17 10:22:03;;;;;;;;;;;24.70;62.50;;;;;;1569550;74;696;-56
2023/08/17 10:24:06;;;;;;;;;;;24.80;62.60;;;;;;1570119;74;1767;-56
2023/08/17 10:26:08;;;;;;;;;;;24.70;62.70;;;;;;1568901;74;1548;-55
2023/08/17 10:28:10;;;;;;;;;;;24.70;62.60;;;;;;1558914;75;675;-54
2023/08/17 10:30:12;;;;;;;;;;;24.80;62.60;;;;;;1568963;74;1117;-54
2023/08/17 10:32:14;;;;;;;;;;;24.70;62.40;;;;;;1565977;75;767;-54
2023/08/17 10:34:16;;;;;;;;;;;24.70;62.40;;;;;;1570038;74;769;-54
2023/08/17 10:36:18;;;;;;;;;;;24.70;62.40;;;;;;1558840;74;714;-56
2023/08/17 10:38:20;;;;;;;;;;;24.80;62.40;;;;;;1563482;75;779;-55
2023/08/17 10:40:28;;;;;;;;;;;24.80;62.40;;;;;;1569863;74;1612;-57
2023/08/17 10:42:33;;;;;;;;;;;24.70;62.40;;;;;;1569797;75;780;-54
2023/08/17 10:44:39;;;;;;;;;;;24.70;62.30;;;;;;1568127;74;713;-55
2023/08/17 10:46:43;;;;;;;;;;;24.70;62.30;;;;;;1566231;74;762;-57
2023/08/17 10:48:44;;;;;;;;;;;24.80;62.30;;;;;;1565893;75;1657;-53
2023/08/17 10:50:48;;;;;;;;;;;24.70;62.30;;;;;;1566580;74;1934;-54
2023/08/17 10:52:50;;;;;;;;;;;24.80;62.10;;;;;;1566857;75;1584;-55
2023/08/17 10:54:52;;;;;;;;;;;24.70;62.10;;;;;;1566007;74;1533;-54
2023/08/17 10:56:54;;;;;;;;;;;24.70;62.10;;;;;;1568795;74;675;-54
2023/08/17 10:58:57;;;;;;;;;;;24.70;62.00;;;;;;1576605;74;1127;-56
2023/08/17 11:00:59;;;;;;;;;;;24.70;62.00;;;;;;1567658;73;1405;-54
2023/08/17 11:03:12;;;;;;;;;;;24.80;62.00;;;;;;1566713;75;1048;-56
2023/08/17 11:05:16;;;;;;;;;;;24.80;62.00;;;;;;1554119;74;1558;-53
2023/08/17 11:07:17;;;;;;;;;;;24.80;62.00;;;;;;1564169;74;1627;-54
2023/08/17 11:09:19;;;;;;;;;;;24.70;62.00;;;;;;1567526;75;1424;-55
2023/08/17 11:11:22;;;;;;;;;;;24.70;62.00;;;;;;1552570;75;1942;-57
2023/08/17 11:13:24;;;;;;;;;;;24.70;61.90;;;;;;1543654;75;762;-55
2023/08/17 11:15:42;;;;;;;;;;;24.70;61.90;;;;;;1567305;75;685;-55
2023/08/17 11:17:39;;;;;;;;;;;24.70;61.90;;;;;;1556406;75;1617;-54
2023/08/17 11:19:41;;;;;;;;;;;24.70;61.80;;;;;;1560852;75;1168;-57
2023/08/17 11:21:43;;;;;;;;;;;24.70;61.90;;;;;;1554703;75;765;-56
2023/08/17 11:23:45;;;;;;;;;;;24.70;61.80;;;;;;1555845;75;1690;-55
2023/08/17 11:25:47;;;;;;;;;;;24.70;61.80;;;;;;1559050;75;736;-54
2023/08/17 11:27:48;;;;;;;;;;;24.70;61.80;;;;;;1561211;75;770;-54
2023/08/17 11:29:50;;;;;;;;;;;24.70;61.80;;;;;;1550575;75;1137;-56
2023/08/17 11:31:52;;;;;;;;;;;24.70;61.80;;;;;;1550577;76;1943;-54
2023/08/17 11:33:54;;;;;;;;;;;24.70;61.70;;;;;;1560602;75;662;-57
2023/08/17 11:35:56;;;;;;;;;;;24.70;61.70;;;;;;1557520;76;770;-56
2023/08/17 11:37:58;;;;;;;;;;;24.80;61.70;;;;;;1555106;75;1486;-53
2023/08/17 11:40:00;;;;;;;;;;;24.70;61.70;;;;;;1550086;75;1188;-54
2023/08/17 11:42:02;;;;;;;;;;;24.80;61.70;;;;;;1552127;75;667;-54
2023/08/17 11:44:04;;;;;;;;;;;24.80;61.60;;;;;;1544985;75;769;-56
2023/08/17 11:46:06;;;;;;;;;;;24.80;61.60;;;;;;1568754;75;804;-57
2023/08/17 11:48:09;;;;;;;;;;;24.70;61.70;;;;;;1554839;76;818;-54
2023/08/17 11:50:11;;;;;;;;;;;24.80;61.60;;;;;;1559623;76;1152;-55
2023/08/17 11:52:13;;;;;;;;;;;24.70;61.60;;;;;;1555568;75;1928;-54
2023/08/17 11:54:15;;;;;;;;;;;24.80;61.50;;;;;;1555632;76;689;-53
2023/08/17 11:56:17;;;;;;;;;;;24.70;61.50;;;;;;1545354;75;814;-56
2023/08/17 11:58:18;;;;;;;;;;;24.80;61.30;;;;;;1556756;75;721;-57
2023/08/17 12:00:21;;;;;;;;;;;24.70;61.40;;;;;;1557026;75;1148;-55
2023/08/17 12:02:26;;;;;;;;;;;24.70;61.30;;;;;;1545122;76;727;-54
2023/08/17 12:04:28;;;;;;;;;;;24.70;61.30;;;;;;1559985;75;1559;-55
2023/08/17 12:06:31;;;;;;;;;;;24.70;61.20;;;;;;1556061;75;664;-55
2023/08/17 12:08:33;;;;;;;;;;;24.70;61.20;;;;;;1558070;75;727;-55